sensor_id;sensor_type;location;lat;lon;timestamp;P1;durP1;ratioP1;P2;durP2;ratioP2
25175;SDS011;13135;55.166;61.286;2023-04-24T00:01:15;3.53;;;2.40;;
25175;SDS011;13135;55.166;61.286;2023-04-24T00:03:58;3.67;;;2.43;;
25175;SDS011;13135;55.166;61.286;2023-04-24T00:06:43;2.83;;;2.30;;
25175;SDS011;13135;55.166;61.286;2023-04-24T00:09:28;2.90;;;2.50;;
25175;SDS011;13135;55.166;61.286;2023-04-24T00:12:13;3.60;;;2.53;;
25175;SDS011;13135;55.166;61.286;2023-04-24T00:15:00;2.40;;;2.20;;
25175;SDS011;13135;55.166;61.286;2023-04-24T00:17:45;3.27;;;2.47;;
25175;SDS011;13135;55.166;61.286;2023-04-24T00:20:32;5.30;;;2.40;;
25175;SDS011;13135;55.166;61.286;2023-04-24T00:23:16;4.80;;;2.20;;
25175;SDS011;13135;55.166;61.286;2023-04-24T00:26:01;3.87;;;2.10;;
25175;SDS011;13135;55.166;61.286;2023-04-24T00:28:48;5.77;;;2.57;;
25175;SDS011;13135;55.166;61.286;2023-04-24T00:31:35;2.60;;;2.40;;
25175;SDS011;13135;55.166;61.286;2023-04-24T00:34:17;2.80;;;2.50;;
25175;SDS011;13135;55.166;61.286;2023-04-24T00:37:02;2.80;;;2.20;;
25175;SDS011;13135;55.166;61.286;2023-04-24T00:39:47;3.63;;;2.40;;
25175;SDS011;13135;55.166;61.286;2023-04-24T00:42:31;2.80;;;2.47;;
25175;SDS011;13135;55.166;61.286;2023-04-24T00:45:18;3.47;;;2.53;;
25175;SDS011;13135;55.166;61.286;2023-04-24T00:48:02;4.50;;;2.63;;
25175;SDS011;13135;55.166;61.286;2023-04-24T00:50:47;4.17;;;2.40;;
25175;SDS011;13135;55.166;61.286;2023-04-24T00:53:34;2.57;;;2.37;;
25175;SDS011;13135;55.166;61.286;2023-04-24T00:56:19;3.27;;;2.40;;
25175;SDS011;13135;55.166;61.286;2023-04-24T00:59:04;2.77;;;2.27;;
25175;SDS011;13135;55.166;61.286;2023-04-24T01:01:48;2.57;;;2.37;;
25175;SDS011;13135;55.166;61.286;2023-04-24T01:04:35;3.37;;;2.67;;
25175;SDS011;13135;55.166;61.286;2023-04-24T01:07:22;2.63;;;2.40;;
25175;SDS011;13135;55.166;61.286;2023-04-24T01:10:06;4.43;;;2.73;;
25175;SDS011;13135;55.166;61.286;2023-04-24T01:12:51;5.00;;;2.17;;
25175;SDS011;13135;55.166;61.286;2023-04-24T01:15:38;3.80;;;2.57;;
25175;SDS011;13135;55.166;61.286;2023-04-24T01:18:23;2.40;;;2.07;;
25175;SDS011;13135;55.166;61.286;2023-04-24T01:21:08;2.47;;;1.90;;
25175;SDS011;13135;55.166;61.286;2023-04-24T01:23:52;5.70;;;2.60;;
25175;SDS011;13135;55.166;61.286;2023-04-24T01:26:37;2.60;;;2.20;;
25175;SDS011;13135;55.166;61.286;2023-04-24T01:29:21;5.03;;;2.60;;
25175;SDS011;13135;55.166;61.286;2023-04-24T01:32:05;3.97;;;2.60;;
25175;SDS011;13135;55.166;61.286;2023-04-24T01:34:50;3.63;;;3.17;;
25175;SDS011;13135;55.166;61.286;2023-04-24T01:37:36;5.13;;;3.10;;
25175;SDS011;13135;55.166;61.286;2023-04-24T01:40:21;4.13;;;2.90;;
25175;SDS011;13135;55.166;61.286;2023-04-24T01:43:05;2.60;;;2.40;;
25175;SDS011;13135;55.166;61.286;2023-04-24T01:45:50;6.77;;;2.80;;
25175;SDS011;13135;55.166;61.286;2023-04-24T01:48:36;4.27;;;2.80;;
25175;SDS011;13135;55.166;61.286;2023-04-24T01:51:21;4.83;;;2.70;;
25175;SDS011;13135;55.166;61.286;2023-04-24T01:54:06;6.97;;;2.60;;
25175;SDS011;13135;55.166;61.286;2023-04-24T01:56:53;3.70;;;2.30;;
25175;SDS011;13135;55.166;61.286;2023-04-24T01:59:38;3.10;;;2.33;;
25175;SDS011;13135;55.166;61.286;2023-04-24T02:02:24;4.37;;;3.20;;
25175;SDS011;13135;55.166;61.286;2023-04-24T02:05:08;4.73;;;2.60;;
25175;SDS011;13135;55.166;61.286;2023-04-24T02:07:55;3.10;;;2.50;;
25175;SDS011;13135;55.166;61.286;2023-04-24T02:10:39;6.97;;;3.47;;
25175;SDS011;13135;55.166;61.286;2023-04-24T02:13:26;8.90;;;2.80;;
25175;SDS011;13135;55.166;61.286;2023-04-24T02:16:11;10.63;;;2.57;;
25175;SDS011;13135;55.166;61.286;2023-04-24T02:18:56;5.80;;;2.40;;
25175;SDS011;13135;55.166;61.286;2023-04-24T02:21:40;7.07;;;4.43;;
25175;SDS011;13135;55.166;61.286;2023-04-24T02:24:25;4.70;;;2.97;;
25175;SDS011;13135;55.166;61.286;2023-04-24T02:27:10;4.93;;;3.10;;
25175;SDS011;13135;55.166;61.286;2023-04-24T02:29:55;3.70;;;2.17;;
25175;SDS011;13135;55.166;61.286;2023-04-24T02:32:36;8.67;;;5.00;;
25175;SDS011;13135;55.166;61.286;2023-04-24T02:35:21;6.23;;;2.67;;
25175;SDS011;13135;55.166;61.286;2023-04-24T02:38:08;5.60;;;2.20;;
25175;SDS011;13135;55.166;61.286;2023-04-24T02:40:49;4.07;;;3.17;;
25175;SDS011;13135;55.166;61.286;2023-04-24T02:43:34;8.67;;;2.87;;
25175;SDS011;13135;55.166;61.286;2023-04-24T02:46:21;5.50;;;2.40;;
25175;SDS011;13135;55.166;61.286;2023-04-24T02:49:06;5.87;;;2.50;;
25175;SDS011;13135;55.166;61.286;2023-04-24T02:51:51;6.97;;;2.87;;
25175;SDS011;13135;55.166;61.286;2023-04-24T02:54:35;5.80;;;2.50;;
25175;SDS011;13135;55.166;61.286;2023-04-24T02:57:19;5.23;;;2.93;;
25175;SDS011;13135;55.166;61.286;2023-04-24T03:00:04;5.93;;;2.50;;
25175;SDS011;13135;55.166;61.286;2023-04-24T03:02:50;7.47;;;2.77;;
25175;SDS011;13135;55.166;61.286;2023-04-24T03:05:31;8.57;;;3.00;;
25175;SDS011;13135;55.166;61.286;2023-04-24T03:08:18;7.17;;;3.20;;
25175;SDS011;13135;55.166;61.286;2023-04-24T03:11:03;3.57;;;2.40;;
25175;SDS011;13135;55.166;61.286;2023-04-24T03:13:48;9.17;;;3.43;;
25175;SDS011;13135;55.166;61.286;2023-04-24T03:16:32;10.90;;;3.60;;
25175;SDS011;13135;55.166;61.286;2023-04-24T03:19:17;5.47;;;3.03;;
25175;SDS011;13135;55.166;61.286;2023-04-24T03:22:04;11.83;;;3.50;;
25175;SDS011;13135;55.166;61.286;2023-04-24T03:24:50;6.67;;;3.13;;
25175;SDS011;13135;55.166;61.286;2023-04-24T03:27:34;8.97;;;3.33;;
25175;SDS011;13135;55.166;61.286;2023-04-24T03:30:20;8.60;;;3.37;;
25175;SDS011;13135;55.166;61.286;2023-04-24T03:33:04;3.57;;;2.20;;
25175;SDS011;13135;55.166;61.286;2023-04-24T03:35:49;6.67;;;2.37;;
25175;SDS011;13135;55.166;61.286;2023-04-24T03:38:36;5.00;;;2.40;;
25175;SDS011;13135;55.166;61.286;2023-04-24T03:41:23;4.97;;;2.50;;
25175;SDS011;13135;55.166;61.286;2023-04-24T03:44:09;3.47;;;2.10;;
25175;SDS011;13135;55.166;61.286;2023-04-24T03:46:57;3.87;;;1.80;;
25175;SDS011;13135;55.166;61.286;2023-04-24T03:49:41;2.07;;;1.70;;
25175;SDS011;13135;55.166;61.286;2023-04-24T03:52:22;2.40;;;1.90;;
25175;SDS011;13135;55.166;61.286;2023-04-24T03:55:07;3.70;;;2.10;;
25175;SDS011;13135;55.166;61.286;2023-04-24T03:57:52;12.63;;;3.17;;
25175;SDS011;13135;55.166;61.286;2023-04-24T04:00:37;6.33;;;1.93;;
25175;SDS011;13135;55.166;61.286;2023-04-24T04:03:22;2.37;;;1.50;;
25175;SDS011;13135;55.166;61.286;2023-04-24T04:06:07;1.57;;;1.47;;
25175;SDS011;13135;55.166;61.286;2023-04-24T04:08:51;3.87;;;1.90;;
25175;SDS011;13135;55.166;61.286;2023-04-24T04:11:36;4.80;;;1.40;;
25175;SDS011;13135;55.166;61.286;2023-04-24T04:14:18;2.87;;;1.43;;
25175;SDS011;13135;55.166;61.286;2023-04-24T04:17:03;3.20;;;1.80;;
25175;SDS011;13135;55.166;61.286;2023-04-24T04:19:50;4.33;;;1.60;;
25175;SDS011;13135;55.166;61.286;2023-04-24T04:22:35;2.17;;;1.60;;
25175;SDS011;13135;55.166;61.286;2023-04-24T04:25:19;2.30;;;1.53;;
25175;SDS011;13135;55.166;61.286;2023-04-24T04:28:01;2.33;;;1.47;;
25175;SDS011;13135;55.166;61.286;2023-04-24T04:30:45;3.90;;;1.80;;
25175;SDS011;13135;55.166;61.286;2023-04-24T04:33:30;3.60;;;1.60;;
25175;SDS011;13135;55.166;61.286;2023-04-24T04:36:14;1.83;;;1.40;;
25175;SDS011;13135;55.166;61.286;2023-04-24T04:38:59;1.80;;;1.40;;
25175;SDS011;13135;55.166;61.286;2023-04-24T04:41:40;2.90;;;1.53;;
25175;SDS011;13135;55.166;61.286;2023-04-24T04:44:25;1.37;;;1.27;;
25175;SDS011;13135;55.166;61.286;2023-04-24T04:47:11;3.27;;;1.60;;
25175;SDS011;13135;55.166;61.286;2023-04-24T04:49:58;4.03;;;1.50;;
25175;SDS011;13135;55.166;61.286;2023-04-24T04:52:45;1.70;;;1.20;;
25175;SDS011;13135;55.166;61.286;2023-04-24T04:55:32;2.17;;;1.10;;
25175;SDS011;13135;55.166;61.286;2023-04-24T04:58:17;2.60;;;1.50;;
25175;SDS011;13135;55.166;61.286;2023-04-24T05:01:04;3.10;;;1.60;;
25175;SDS011;13135;55.166;61.286;2023-04-24T05:03:48;2.10;;;1.40;;
25175;SDS011;13135;55.166;61.286;2023-04-24T05:06:33;3.43;;;1.37;;
25175;SDS011;13135;55.166;61.286;2023-04-24T05:09:17;1.63;;;1.30;;
25175;SDS011;13135;55.166;61.286;2023-04-24T05:12:01;3.20;;;1.50;;
25175;SDS011;13135;55.166;61.286;2023-04-24T05:14:46;3.87;;;1.60;;
25175;SDS011;13135;55.166;61.286;2023-04-24T05:17:31;1.40;;;1.20;;
25175;SDS011;13135;55.166;61.286;2023-04-24T05:20:16;2.50;;;1.40;;
25175;SDS011;13135;55.166;61.286;2023-04-24T05:23:03;1.40;;;1.30;;
25175;SDS011;13135;55.166;61.286;2023-04-24T05:25:48;1.53;;;1.30;;
25175;SDS011;13135;55.166;61.286;2023-04-24T05:28:33;1.60;;;1.50;;
25175;SDS011;13135;55.166;61.286;2023-04-24T05:31:20;2.63;;;1.43;;
25175;SDS011;13135;55.166;61.286;2023-04-24T05:34:06;2.80;;;1.43;;
25175;SDS011;13135;55.166;61.286;2023-04-24T05:36:50;1.50;;;1.30;;
25175;SDS011;13135;55.166;61.286;2023-04-24T05:39:36;2.93;;;1.40;;
25175;SDS011;13135;55.166;61.286;2023-04-24T05:42:19;2.07;;;1.17;;
25175;SDS011;13135;55.166;61.286;2023-04-24T05:45:05;1.97;;;1.40;;
25175;SDS011;13135;55.166;61.286;2023-04-24T05:47:52;1.40;;;1.30;;
25175;SDS011;13135;55.166;61.286;2023-04-24T05:50:44;2.10;;;1.50;;
25175;SDS011;13135;55.166;61.286;2023-04-24T05:53:28;3.60;;;1.33;;
25175;SDS011;13135;55.166;61.286;2023-04-24T05:56:15;1.70;;;1.20;;
25175;SDS011;13135;55.166;61.286;2023-04-24T05:59:02;10.20;;;2.30;;
25175;SDS011;13135;55.166;61.286;2023-04-24T06:01:49;3.57;;;1.40;;
25175;SDS011;13135;55.166;61.286;2023-04-24T06:04:34;2.17;;;1.60;;
25175;SDS011;13135;55.166;61.286;2023-04-24T06:07:21;1.53;;;1.30;;
25175;SDS011;13135;55.166;61.286;2023-04-24T06:10:07;3.23;;;1.50;;
25175;SDS011;13135;55.166;61.286;2023-04-24T06:12:52;2.57;;;1.10;;
25175;SDS011;13135;55.166;61.286;2023-04-24T06:15:36;2.63;;;1.27;;
25175;SDS011;13135;55.166;61.286;2023-04-24T06:21:11;1.67;;;1.30;;
25175;SDS011;13135;55.166;61.286;2023-04-24T06:23:55;2.00;;;1.20;;
25175;SDS011;13135;55.166;61.286;2023-04-24T06:26:40;5.60;;;1.77;;
25175;SDS011;13135;55.166;61.286;2023-04-24T06:29:25;3.27;;;1.50;;
25175;SDS011;13135;55.166;61.286;2023-04-24T06:32:11;4.17;;;1.30;;
25175;SDS011;13135;55.166;61.286;2023-04-24T06:34:56;4.37;;;1.20;;
25175;SDS011;13135;55.166;61.286;2023-04-24T06:37:41;3.40;;;1.37;;
25175;SDS011;13135;55.166;61.286;2023-04-24T06:40:27;5.97;;;1.80;;
25175;SDS011;13135;55.166;61.286;2023-04-24T06:43:21;2.23;;;0.93;;
25175;SDS011;13135;55.166;61.286;2023-04-24T06:45:54;2.23;;;1.20;;
25175;SDS011;13135;55.166;61.286;2023-04-24T06:48:38;3.50;;;1.20;;
25175;SDS011;13135;55.166;61.286;2023-04-24T06:51:23;5.40;;;1.30;;
25175;SDS011;13135;55.166;61.286;2023-04-24T06:54:10;10.80;;;2.00;;
25175;SDS011;13135;55.166;61.286;2023-04-24T06:56:56;2.47;;;1.13;;
25175;SDS011;13135;55.166;61.286;2023-04-24T06:59:41;2.53;;;1.10;;
25175;SDS011;13135;55.166;61.286;2023-04-24T07:02:23;1.50;;;1.10;;
25175;SDS011;13135;55.166;61.286;2023-04-24T07:05:08;2.47;;;1.30;;
25175;SDS011;13135;55.166;61.286;2023-04-24T07:07:53;2.40;;;1.10;;
25175;SDS011;13135;55.166;61.286;2023-04-24T07:10:38;1.20;;;1.10;;
25175;SDS011;13135;55.166;61.286;2023-04-24T07:13:23;2.00;;;1.10;;
25175;SDS011;13135;55.166;61.286;2023-04-24T07:16:07;2.37;;;1.40;;
25175;SDS011;13135;55.166;61.286;2023-04-24T07:18:53;2.67;;;1.10;;
25175;SDS011;13135;55.166;61.286;2023-04-24T07:21:38;5.53;;;1.30;;
25175;SDS011;13135;55.166;61.286;2023-04-24T07:24:22;1.87;;;1.27;;
25175;SDS011;13135;55.166;61.286;2023-04-24T07:27:09;4.13;;;1.33;;
25175;SDS011;13135;55.166;61.286;2023-04-24T07:29:56;4.70;;;1.40;;
25175;SDS011;13135;55.166;61.286;2023-04-24T07:32:36;3.30;;;1.30;;
25175;SDS011;13135;55.166;61.286;2023-04-24T07:35:21;1.23;;;1.10;;
25175;SDS011;13135;55.166;61.286;2023-04-24T07:38:10;1.53;;;1.40;;
25175;SDS011;13135;55.166;61.286;2023-04-24T07:40:56;2.40;;;1.30;;
25175;SDS011;13135;55.166;61.286;2023-04-24T07:43:41;1.90;;;1.00;;
25175;SDS011;13135;55.166;61.286;2023-04-24T07:46:29;2.20;;;1.20;;
25175;SDS011;13135;55.166;61.286;2023-04-24T07:49:15;2.67;;;1.10;;
25175;SDS011;13135;55.166;61.286;2023-04-24T07:52:00;4.93;;;1.40;;
25175;SDS011;13135;55.166;61.286;2023-04-24T07:54:45;7.63;;;1.40;;
25175;SDS011;13135;55.166;61.286;2023-04-24T07:57:31;3.03;;;1.37;;
25175;SDS011;13135;55.166;61.286;2023-04-24T08:00:17;3.03;;;1.20;;
25175;SDS011;13135;55.166;61.286;2023-04-24T08:03:04;1.50;;;1.37;;
25175;SDS011;13135;55.166;61.286;2023-04-24T08:05:51;1.47;;;1.20;;
25175;SDS011;13135;55.166;61.286;2023-04-24T08:08:38;2.00;;;1.30;;
25175;SDS011;13135;55.166;61.286;2023-04-24T08:11:23;1.90;;;1.47;;
25175;SDS011;13135;55.166;61.286;2023-04-24T08:14:09;1.37;;;1.10;;
25175;SDS011;13135;55.166;61.286;2023-04-24T08:16:54;4.05;;;1.42;;
25175;SDS011;13135;55.166;61.286;2023-04-24T08:19:41;7.45;;;1.62;;
25175;SDS011;13135;55.166;61.286;2023-04-24T08:22:26;2.78;;;1.02;;
25175;SDS011;13135;55.166;61.286;2023-04-24T08:25:11;3.15;;;1.10;;
25175;SDS011;13135;55.166;61.286;2023-04-24T08:27:57;2.45;;;1.40;;
25175;SDS011;13135;55.166;61.286;2023-04-24T08:30:44;1.12;;;0.90;;
25175;SDS011;13135;55.166;61.286;2023-04-24T08:33:31;1.73;;;1.00;;
25175;SDS011;13135;55.166;61.286;2023-04-24T08:36:16;2.85;;;1.00;;
25175;SDS011;13135;55.166;61.286;2023-04-24T08:39:00;3.22;;;1.40;;
25175;SDS011;13135;55.166;61.286;2023-04-24T08:41:45;1.65;;;0.88;;
25175;SDS011;13135;55.166;61.286;2023-04-24T08:44:32;2.72;;;1.52;;
25175;SDS011;13135;55.166;61.286;2023-04-24T08:47:18;2.45;;;1.17;;
25175;SDS011;13135;55.166;61.286;2023-04-24T08:50:03;1.20;;;1.10;;
25175;SDS011;13135;55.166;61.286;2023-04-24T08:52:50;1.65;;;1.42;;
25175;SDS011;13135;55.166;61.286;2023-04-24T08:55:44;3.03;;;1.05;;
25175;SDS011;13135;55.166;61.286;2023-04-24T08:58:31;2.15;;;0.90;;
25175;SDS011;13135;55.166;61.286;2023-04-24T09:01:17;1.35;;;1.15;;
25175;SDS011;13135;55.166;61.286;2023-04-24T09:04:02;1.00;;;0.90;;
25175;SDS011;13135;55.166;61.286;2023-04-24T09:06:49;1.17;;;1.08;;
25175;SDS011;13135;55.166;61.286;2023-04-24T09:09:36;2.05;;;1.25;;
25175;SDS011;13135;55.166;61.286;2023-04-24T09:12:20;1.35;;;1.10;;
25175;SDS011;13135;55.166;61.286;2023-04-24T09:15:10;1.05;;;0.85;;
25175;SDS011;13135;55.166;61.286;2023-04-24T09:18:28;1.60;;;1.10;;
25175;SDS011;13135;55.166;61.286;2023-04-24T09:21:15;2.67;;;1.00;;
25175;SDS011;13135;55.166;61.286;2023-04-24T09:24:02;2.15;;;0.98;;
25175;SDS011;13135;55.166;61.286;2023-04-24T09:26:47;2.10;;;0.90;;
25175;SDS011;13135;55.166;61.286;2023-04-24T09:29:32;1.12;;;0.90;;
25175;SDS011;13135;55.166;61.286;2023-04-24T09:32:19;1.85;;;1.10;;
25175;SDS011;13135;55.166;61.286;2023-04-24T09:35:08;1.48;;;0.90;;
25175;SDS011;13135;55.166;61.286;2023-04-24T09:37:54;4.65;;;1.52;;
25175;SDS011;13135;55.166;61.286;2023-04-24T09:40:39;1.30;;;1.00;;
25175;SDS011;13135;55.166;61.286;2023-04-24T09:43:26;2.15;;;1.10;;
25175;SDS011;13135;55.166;61.286;2023-04-24T09:46:19;1.95;;;0.98;;
25175;SDS011;13135;55.166;61.286;2023-04-24T09:49:09;3.03;;;1.45;;
25175;SDS011;13135;55.166;61.286;2023-04-24T09:54:52;1.00;;;0.90;;
25175;SDS011;13135;55.166;61.286;2023-04-24T09:57:46;1.92;;;1.20;;
25175;SDS011;13135;55.166;61.286;2023-04-24T10:00:26;1.50;;;1.10;;
25175;SDS011;13135;55.166;61.286;2023-04-24T10:03:14;2.65;;;1.00;;
25175;SDS011;13135;55.166;61.286;2023-04-24T10:06:00;2.00;;;1.10;;
25175;SDS011;13135;55.166;61.286;2023-04-24T10:08:50;1.55;;;1.10;;
25175;SDS011;13135;55.166;61.286;2023-04-24T10:11:43;2.70;;;1.05;;
25175;SDS011;13135;55.166;61.286;2023-04-24T10:14:29;2.28;;;1.10;;
25175;SDS011;13135;55.166;61.286;2023-04-24T10:17:15;1.17;;;0.93;;
25175;SDS011;13135;55.166;61.286;2023-04-24T10:20:00;1.37;;;1.10;;
25175;SDS011;13135;55.166;61.286;2023-04-24T10:22:48;1.50;;;1.08;;
25175;SDS011;13135;55.166;61.286;2023-04-24T10:25:34;3.50;;;1.42;;
25175;SDS011;13135;55.166;61.286;2023-04-24T10:34:55;2.92;;;1.40;;
25175;SDS011;13135;55.166;61.286;2023-04-24T10:37:45;2.10;;;1.50;;
25175;SDS011;13135;55.166;61.286;2023-04-24T10:40:30;2.05;;;1.23;;
25175;SDS011;13135;55.166;61.286;2023-04-24T10:43:16;3.03;;;1.20;;
25175;SDS011;13135;55.166;61.286;2023-04-24T10:46:03;1.80;;;1.37;;
25175;SDS011;13135;55.166;61.286;2023-04-24T10:48:53;1.90;;;1.27;;
25175;SDS011;13135;55.166;61.286;2023-04-24T10:51:49;2.47;;;1.50;;
25175;SDS011;13135;55.166;61.286;2023-04-24T10:54:36;2.60;;;1.30;;
25175;SDS011;13135;55.166;61.286;2023-04-24T10:57:26;3.65;;;1.52;;
25175;SDS011;13135;55.166;61.286;2023-04-24T11:00:19;3.10;;;1.30;;
25175;SDS011;13135;55.166;61.286;2023-04-24T11:06:11;2.40;;;1.40;;
25175;SDS011;13135;55.166;61.286;2023-04-24T11:09:05;1.65;;;1.50;;
25175;SDS011;13135;55.166;61.286;2023-04-24T11:11:51;2.28;;;1.40;;
25175;SDS011;13135;55.166;61.286;2023-04-24T11:17:33;1.67;;;1.55;;
25175;SDS011;13135;55.166;61.286;2023-04-24T11:20:22;2.05;;;1.27;;
25175;SDS011;13135;55.166;61.286;2023-04-24T11:23:06;1.48;;;1.30;;
25175;SDS011;13135;55.166;61.286;2023-04-24T11:29:06;1.75;;;1.40;;
25175;SDS011;13135;55.166;61.286;2023-04-24T11:31:53;3.15;;;1.37;;
25175;SDS011;13135;55.166;61.286;2023-04-24T11:34:40;3.92;;;1.42;;
25175;SDS011;13135;55.166;61.286;2023-04-24T11:37:26;2.55;;;1.40;;
25175;SDS011;13135;55.166;61.286;2023-04-24T11:40:14;2.60;;;1.65;;
25175;SDS011;13135;55.166;61.286;2023-04-24T11:43:00;1.90;;;1.58;;
25175;SDS011;13135;55.166;61.286;2023-04-24T11:45:48;3.70;;;1.90;;
25175;SDS011;13135;55.166;61.286;2023-04-24T11:48:35;3.53;;;1.70;;
25175;SDS011;13135;55.166;61.286;2023-04-24T11:51:22;3.53;;;1.65;;
25175;SDS011;13135;55.166;61.286;2023-04-24T11:54:07;2.65;;;1.50;;
25175;SDS011;13135;55.166;61.286;2023-04-24T11:56:53;2.10;;;1.40;;
25175;SDS011;13135;55.166;61.286;2023-04-24T11:59:40;2.10;;;1.40;;
25175;SDS011;13135;55.166;61.286;2023-04-24T12:02:27;1.50;;;1.40;;
25175;SDS011;13135;55.166;61.286;2023-04-24T12:08:07;2.72;;;1.48;;
25175;SDS011;13135;55.166;61.286;2023-04-24T12:10:54;2.42;;;1.50;;
25175;SDS011;13135;55.166;61.286;2023-04-24T12:13:38;2.47;;;1.37;;
25175;SDS011;13135;55.166;61.286;2023-04-24T12:16:29;1.90;;;1.30;;
25175;SDS011;13135;55.166;61.286;2023-04-24T12:19:23;1.77;;;1.50;;
25175;SDS011;13135;55.166;61.286;2023-04-24T12:22:10;3.78;;;1.60;;
25175;SDS011;13135;55.166;61.286;2023-04-24T12:25:01;4.93;;;1.60;;
25175;SDS011;13135;55.166;61.286;2023-04-24T12:27:51;1.95;;;1.00;;
25175;SDS011;13135;55.166;61.286;2023-04-24T12:30:33;2.17;;;1.40;;
25175;SDS011;13135;55.166;61.286;2023-04-24T12:33:19;2.17;;;1.20;;
25175;SDS011;13135;55.166;61.286;2023-04-24T12:36:05;2.35;;;1.40;;
25175;SDS011;13135;55.166;61.286;2023-04-24T12:39:00;2.33;;;1.30;;
25175;SDS011;13135;55.166;61.286;2023-04-24T12:41:50;3.78;;;1.27;;
25175;SDS011;13135;55.166;61.286;2023-04-24T12:44:46;1.60;;;1.20;;
25175;SDS011;13135;55.166;61.286;2023-04-24T12:47:34;1.80;;;1.23;;
25175;SDS011;13135;55.166;61.286;2023-04-24T12:50:24;2.10;;;1.20;;
25175;SDS011;13135;55.166;61.286;2023-04-24T12:53:08;3.00;;;1.60;;
25175;SDS011;13135;55.166;61.286;2023-04-24T12:55:52;2.78;;;1.70;;
25175;SDS011;13135;55.166;61.286;2023-04-24T12:58:48;4.53;;;1.35;;
25175;SDS011;13135;55.166;61.286;2023-04-24T13:01:32;2.65;;;1.30;;
25175;SDS011;13135;55.166;61.286;2023-04-24T13:04:19;1.50;;;1.40;;
25175;SDS011;13135;55.166;61.286;2023-04-24T13:07:05;2.42;;;1.20;;
25175;SDS011;13135;55.166;61.286;2023-04-24T13:09:49;3.60;;;1.20;;
25175;SDS011;13135;55.166;61.286;2023-04-24T13:12:31;1.02;;;0.90;;
25175;SDS011;13135;55.166;61.286;2023-04-24T13:15:18;2.12;;;1.17;;
25175;SDS011;13135;55.166;61.286;2023-04-24T13:18:07;2.42;;;1.20;;
25175;SDS011;13135;55.166;61.286;2023-04-24T13:20:56;2.30;;;1.55;;
25175;SDS011;13135;55.166;61.286;2023-04-24T13:23:43;1.40;;;1.10;;
25175;SDS011;13135;55.166;61.286;2023-04-24T13:26:28;1.05;;;0.95;;
25175;SDS011;13135;55.166;61.286;2023-04-24T13:29:14;1.30;;;0.80;;
25175;SDS011;13135;55.166;61.286;2023-04-24T13:32:02;1.25;;;0.80;;
25175;SDS011;13135;55.166;61.286;2023-04-24T13:34:45;5.28;;;4.20;;
25175;SDS011;13135;55.166;61.286;2023-04-24T13:37:31;1.15;;;1.00;;
25175;SDS011;13135;55.166;61.286;2023-04-24T14:05:02;2.20;;;0.80;;
25175;SDS011;13135;55.166;61.286;2023-04-24T14:07:48;1.10;;;1.00;;
25175;SDS011;13135;55.166;61.286;2023-04-24T14:10:35;2.00;;;1.00;;
25175;SDS011;13135;55.166;61.286;2023-04-24T14:13:19;0.85;;;0.80;;
25175;SDS011;13135;55.166;61.286;2023-04-24T14:16:04;1.65;;;1.00;;
25175;SDS011;13135;55.166;61.286;2023-04-24T14:18:55;1.62;;;0.98;;
25175;SDS011;13135;55.166;61.286;2023-04-24T14:21:42;2.42;;;1.27;;
25175;SDS011;13135;55.166;61.286;2023-04-24T14:24:28;2.00;;;1.40;;
25175;SDS011;13135;55.166;61.286;2023-04-24T14:27:14;1.20;;;0.90;;
25175;SDS011;13135;55.166;61.286;2023-04-24T14:30:01;1.50;;;0.93;;
25175;SDS011;13135;55.166;61.286;2023-04-24T14:32:57;1.00;;;0.90;;
25175;SDS011;13135;55.166;61.286;2023-04-24T14:36:04;1.73;;;0.93;;
25175;SDS011;13135;55.166;61.286;2023-04-24T14:38:50;1.48;;;1.00;;
25175;SDS011;13135;55.166;61.286;2023-04-24T14:41:33;3.42;;;1.65;;
25175;SDS011;13135;55.166;61.286;2023-04-24T14:44:20;1.62;;;1.52;;
25175;SDS011;13135;55.166;61.286;2023-04-24T14:47:06;2.92;;;1.30;;
25175;SDS011;13135;55.166;61.286;2023-04-24T14:49:50;2.05;;;1.30;;
25175;SDS011;13135;55.166;61.286;2023-04-24T14:52:36;1.50;;;0.90;;
25175;SDS011;13135;55.166;61.286;2023-04-24T14:55:21;2.75;;;0.90;;
25175;SDS011;13135;55.166;61.286;2023-04-24T14:58:07;2.25;;;1.12;;
25175;SDS011;13135;55.166;61.286;2023-04-24T15:00:53;1.33;;;1.10;;
25175;SDS011;13135;55.166;61.286;2023-04-24T15:03:38;1.33;;;1.00;;
25175;SDS011;13135;55.166;61.286;2023-04-24T15:06:22;1.55;;;1.10;;
25175;SDS011;13135;55.166;61.286;2023-04-24T15:09:10;1.73;;;1.15;;
25175;SDS011;13135;55.166;61.286;2023-04-24T15:11:55;1.83;;;1.17;;
25175;SDS011;13135;55.166;61.286;2023-04-24T15:14:39;1.92;;;1.23;;
25175;SDS011;13135;55.166;61.286;2023-04-24T15:17:32;1.42;;;1.33;;
25175;SDS011;13135;55.166;61.286;2023-04-24T15:20:25;1.98;;;1.30;;
25175;SDS011;13135;55.166;61.286;2023-04-24T15:23:09;2.37;;;1.15;;
25175;SDS011;13135;55.166;61.286;2023-04-24T15:25:56;3.28;;;1.40;;
25175;SDS011;13135;55.166;61.286;2023-04-24T15:28:44;2.92;;;1.87;;
25175;SDS011;13135;55.166;61.286;2023-04-24T15:31:32;4.25;;;2.00;;
25175;SDS011;13135;55.166;61.286;2023-04-24T15:34:18;3.80;;;2.37;;
25175;SDS011;13135;55.166;61.286;2023-04-24T15:37:06;2.78;;;2.00;;
25175;SDS011;13135;55.166;61.286;2023-04-24T15:39:52;2.00;;;1.73;;
25175;SDS011;13135;55.166;61.286;2023-04-24T15:42:39;3.15;;;1.70;;
25175;SDS011;13135;55.166;61.286;2023-04-24T15:45:24;3.53;;;2.33;;
25175;SDS011;13135;55.166;61.286;2023-04-24T15:48:16;2.67;;;2.05;;
25175;SDS011;13135;55.166;61.286;2023-04-24T15:51:01;2.30;;;1.73;;
25175;SDS011;13135;55.166;61.286;2023-04-24T15:53:52;3.10;;;1.80;;
25175;SDS011;13135;55.166;61.286;2023-04-24T15:56:39;2.30;;;1.67;;
25175;SDS011;13135;55.166;61.286;2023-04-24T15:59:26;3.95;;;1.80;;
25175;SDS011;13135;55.166;61.286;2023-04-24T16:02:12;3.15;;;2.33;;
25175;SDS011;13135;55.166;61.286;2023-04-24T16:05:02;4.60;;;1.50;;
25175;SDS011;13135;55.166;61.286;2023-04-24T16:07:47;1.80;;;1.42;;
25175;SDS011;13135;55.166;61.286;2023-04-24T16:10:37;3.33;;;1.70;;
25175;SDS011;13135;55.166;61.286;2023-04-24T16:13:24;2.85;;;1.42;;
25175;SDS011;13135;55.166;61.286;2023-04-24T16:16:17;2.85;;;2.20;;
25175;SDS011;13135;55.166;61.286;2023-04-24T16:19:38;2.95;;;1.83;;
25175;SDS011;13135;55.166;61.286;2023-04-24T16:25:37;2.10;;;1.90;;
25175;SDS011;13135;55.166;61.286;2023-04-24T16:28:22;3.87;;;1.93;;
25175;SDS011;13135;55.166;61.286;2023-04-24T16:31:07;5.32;;;1.80;;
25175;SDS011;13135;55.166;61.286;2023-04-24T16:33:59;3.17;;;1.62;;
25175;SDS011;13135;55.166;61.286;2023-04-24T16:36:46;1.67;;;1.50;;
25175;SDS011;13135;55.166;61.286;2023-04-24T16:39:37;2.10;;;1.73;;
25175;SDS011;13135;55.166;61.286;2023-04-24T16:42:24;2.75;;;1.75;;
25175;SDS011;13135;55.166;61.286;2023-04-24T16:45:09;3.20;;;1.70;;
25175;SDS011;13135;55.166;61.286;2023-04-24T16:48:08;3.50;;;1.60;;
25175;SDS011;13135;55.166;61.286;2023-04-24T16:50:53;3.22;;;2.00;;
25175;SDS011;13135;55.166;61.286;2023-04-24T16:53:40;4.53;;;1.65;;
25175;SDS011;13135;55.166;61.286;2023-04-24T16:59:21;2.40;;;1.70;;
25175;SDS011;13135;55.166;61.286;2023-04-24T17:02:08;2.80;;;1.73;;
25175;SDS011;13135;55.166;61.286;2023-04-24T17:05:36;2.42;;;1.83;;
25175;SDS011;13135;55.166;61.286;2023-04-24T17:08:23;2.97;;;2.10;;
25175;SDS011;13135;55.166;61.286;2023-04-24T17:11:07;3.67;;;2.00;;
25175;SDS011;13135;55.166;61.286;2023-04-24T17:13:53;2.92;;;2.10;;
25175;SDS011;13135;55.166;61.286;2023-04-24T17:16:39;4.37;;;2.43;;
25175;SDS011;13135;55.166;61.286;2023-04-24T17:19:26;4.65;;;2.03;;
25175;SDS011;13135;55.166;61.286;2023-04-24T17:22:13;3.10;;;2.07;;